createdAt,value
2022-08-31T00:00:29.085Z,50.584087
2022-08-31T00:01:29.068Z,50.584118
2022-08-31T00:02:29.135Z,50.584206
2022-08-31T00:03:29.023Z,50.584194
2022-08-31T00:04:29.037Z,50.584061
2022-08-31T00:05:29.061Z,50.584076
2022-08-31T00:06:28.985Z,50.584133
2022-08-31T00:07:28.989Z,50.584206
2022-08-31T00:08:29.060Z,50.584145
2022-08-31T00:09:28.923Z,50.584133
2022-08-31T00:10:32.345Z,50.584072
2022-08-31T00:11:29.891Z,50.584114
2022-08-31T00:12:28.864Z,50.584110
2022-08-31T00:13:28.853Z,50.584175
2022-08-31T00:14:28.853Z,50.584110
2022-08-31T00:15:28.834Z,50.584045
2022-08-31T00:16:28.867Z,50.584038
2022-08-31T00:17:28.772Z,50.584068
2022-08-31T00:18:28.771Z,50.584076
2022-08-31T00:19:28.734Z,50.584064
2022-08-31T00:20:33.493Z,50.584084
2022-08-31T00:21:29.670Z,50.584095
2022-08-31T00:22:28.684Z,50.584064
2022-08-31T00:23:28.793Z,50.584137
2022-08-31T00:24:28.635Z,50.584095
2022-08-31T00:25:28.607Z,50.584091
2022-08-31T00:26:28.626Z,50.584110
2022-08-31T00:27:28.580Z,50.584095
2022-08-31T00:28:28.575Z,50.584099
2022-08-31T00:29:28.542Z,50.584076
2022-08-31T00:30:28.510Z,50.584122
2022-08-31T00:31:28.534Z,50.584114
2022-08-31T00:32:28.918Z,50.584091
2022-08-31T00:33:28.523Z,50.584099
2022-08-31T00:34:28.437Z,50.584084
2022-08-31T00:35:28.427Z,50.584103
2022-08-31T00:36:28.421Z,50.584103
2022-08-31T00:37:28.408Z,50.584099
2022-08-31T00:38:28.419Z,50.584103
2022-08-31T00:39:28.428Z,50.584080
2022-08-31T00:40:28.392Z,50.584084
2022-08-31T00:41:28.397Z,50.584118
2022-08-31T00:42:28.347Z,50.584087
2022-08-31T00:43:28.281Z,50.584091
2022-08-31T00:44:28.302Z,50.584042
2022-08-31T00:45:28.251Z,50.584126
2022-08-31T00:46:28.281Z,50.584118
2022-08-31T00:47:28.227Z,50.584187
2022-08-31T00:48:28.201Z,50.584068
2022-08-31T00:49:28.219Z,50.584045
2022-08-31T00:50:28.228Z,50.583992
2022-08-31T00:51:28.155Z,50.583946
2022-08-31T00:52:28.124Z,50.584015
2022-08-31T00:53:29.091Z,50.584026
2022-08-31T00:54:28.084Z,50.584030
2022-08-31T00:55:28.108Z,50.584007
2022-08-31T00:56:28.047Z,50.584023
2022-08-31T00:57:30.082Z,50.584042
2022-08-31T00:58:29.048Z,50.584038
2022-08-31T00:59:28.075Z,50.584038
2022-08-31T01:00:27.998Z,50.584099
2022-08-31T01:01:28.024Z,50.584103
2022-08-31T01:02:27.974Z,50.584076
2022-08-31T01:03:27.950Z,50.584091
2022-08-31T01:04:27.944Z,50.584099
2022-08-31T01:05:27.923Z,50.584114
2022-08-31T01:06:27.900Z,50.584068
2022-08-31T01:07:27.884Z,50.584106
2022-08-31T01:08:30.776Z,50.584129
2022-08-31T01:09:27.808Z,50.584091
2022-08-31T01:10:27.843Z,50.584091
2022-08-31T01:11:27.789Z,50.584126
2022-08-31T01:12:27.753Z,50.584087
2022-08-31T01:13:27.718Z,50.584030
2022-08-31T01:14:27.711Z,50.584000
2022-08-31T01:15:27.757Z,50.584019
2022-08-31T01:16:27.807Z,50.584042
2022-08-31T01:17:27.653Z,50.584129
2022-08-31T01:18:27.649Z,50.584087
2022-08-31T01:19:27.661Z,50.584076
2022-08-31T01:20:27.621Z,50.584061
2022-08-31T01:21:27.632Z,50.584064
2022-08-31T01:22:27.552Z,50.584091
2022-08-31T01:23:27.571Z,50.584038
2022-08-31T01:24:27.581Z,50.584015
2022-08-31T01:25:33.508Z,50.583992
2022-08-31T01:26:28.604Z,50.584026
2022-08-31T01:27:27.496Z,50.584053
2022-08-31T01:28:27.448Z,50.584053
2022-08-31T01:29:27.453Z,50.584064
2022-08-31T01:30:27.406Z,50.584072
2022-08-31T01:31:27.476Z,50.584049
2022-08-31T01:32:27.435Z,50.584064
2022-08-31T01:33:27.423Z,50.584106
2022-08-31T01:34:27.356Z,50.584095
2022-08-31T01:35:27.369Z,50.584076
2022-08-31T01:36:27.350Z,50.584095
2022-08-31T01:37:29.488Z,50.584145
2022-08-31T01:38:27.286Z,50.584106
2022-08-31T01:39:27.326Z,50.584087
2022-08-31T01:40:27.295Z,50.584091
2022-08-31T01:41:27.267Z,50.584053
2022-08-31T01:42:33.506Z,50.584095
2022-08-31T01:43:28.203Z,50.584106
2022-08-31T01:44:27.163Z,50.584118
2022-08-31T01:45:27.194Z,50.584175
2022-08-31T01:46:27.164Z,50.584171
2022-08-31T01:47:27.143Z,50.584179
2022-08-31T01:48:27.126Z,50.584248
2022-08-31T01:49:27.085Z,50.584232
2022-08-31T01:50:27.064Z,50.584202
2022-08-31T01:51:27.098Z,50.584194
2022-08-31T01:52:27.780Z,50.584171
2022-08-31T01:53:27.053Z,50.584152
2022-08-31T01:54:26.996Z,50.584152
2022-08-31T01:55:26.997Z,50.584225
2022-08-31T01:56:26.953Z,50.584209
2022-08-31T01:57:33.392Z,50.584198
2022-08-31T01:58:27.962Z,50.584129
2022-08-31T01:59:26.926Z,50.584103
2022-08-31T02:00:26.947Z,50.584103
2022-08-31T02:01:32.760Z,50.584099
2022-08-31T02:02:27.959Z,50.584084
2022-08-31T02:03:26.842Z,50.584122
2022-08-31T02:04:26.844Z,50.584095
2022-08-31T02:05:26.799Z,50.584110
2022-08-31T02:06:26.763Z,50.584118
2022-08-31T02:07:27.099Z,50.584126
2022-08-31T02:08:26.738Z,50.584152
2022-08-31T02:09:26.867Z,50.584122
2022-08-31T02:10:26.912Z,50.584122
2022-08-31T02:11:26.725Z,50.584164
2022-08-31T02:12:26.612Z,50.584145
2022-08-31T02:13:26.644Z,50.584160
2022-08-31T02:14:26.677Z,50.584179
2022-08-31T02:15:26.615Z,50.584259
2022-08-31T02:16:26.654Z,50.584221
2022-08-31T02:17:26.552Z,50.584213
2022-08-31T02:18:26.561Z,50.584263
2022-08-31T02:19:26.539Z,50.584244
2022-08-31T02:20:26.544Z,50.584244
2022-08-31T02:21:26.513Z,50.584248
2022-08-31T02:22:26.479Z,50.584259
2022-08-31T02:23:26.462Z,50.584236
2022-08-31T02:24:26.455Z,50.584248
2022-08-31T02:25:26.520Z,50.584225
2022-08-31T02:26:26.352Z,50.584213
2022-08-31T02:27:26.389Z,50.584183
2022-08-31T02:28:26.363Z,50.584209
2022-08-31T02:29:26.348Z,50.584209
2022-08-31T02:30:26.362Z,50.584118
2022-08-31T02:31:26.382Z,50.584103
2022-08-31T02:32:26.285Z,50.584141
2022-08-31T02:33:26.290Z,50.584148
2022-08-31T02:34:26.362Z,50.584133
2022-08-31T02:35:26.243Z,50.584099
2022-08-31T02:36:26.271Z,50.584084
2022-08-31T02:37:26.223Z,50.584103
2022-08-31T02:38:26.249Z,50.584095
2022-08-31T02:39:26.165Z,50.584099
2022-08-31T02:40:26.160Z,50.584106
2022-08-31T02:41:26.154Z,50.584156
2022-08-31T02:42:28.072Z,50.584145
2022-08-31T02:43:27.216Z,50.584148
2022-08-31T02:44:26.086Z,50.584148
2022-08-31T02:45:26.033Z,50.584148
2022-08-31T02:46:26.368Z,50.584156
2022-08-31T02:47:26.046Z,50.584167
2022-08-31T02:48:26.255Z,50.584076
2022-08-31T02:49:26.890Z,50.584126
2022-08-31T02:50:25.944Z,50.584118
2022-08-31T02:51:25.867Z,50.584103
2022-08-31T02:52:25.882Z,50.584148
2022-08-31T02:53:25.907Z,50.584133
2022-08-31T02:54:25.873Z,50.584091
2022-08-31T02:55:25.859Z,50.584095
2022-08-31T02:56:25.845Z,50.584145
2022-08-31T02:57:25.854Z,50.584244
2022-08-31T02:58:25.748Z,50.584042
2022-08-31T02:59:25.749Z,50.584042
2022-08-31T03:00:25.708Z,50.584019
2022-08-31T03:01:25.826Z,50.584023
2022-08-31T03:02:31.779Z,50.584064
2022-08-31T03:03:26.796Z,50.584106
2022-08-31T03:04:25.658Z,50.584156
2022-08-31T03:05:25.640Z,50.584110
2022-08-31T03:06:25.668Z,50.584110
2022-08-31T03:07:25.686Z,50.584175
2022-08-31T03:08:25.605Z,50.584206
2022-08-31T03:09:25.650Z,50.584225
2022-08-31T03:10:25.559Z,50.584232
2022-08-31T03:11:25.587Z,50.584206
2022-08-31T03:12:25.528Z,50.584148
2022-08-31T03:13:25.511Z,50.584137
2022-08-31T03:14:25.533Z,50.584118
2022-08-31T03:15:25.459Z,50.584106
2022-08-31T03:16:25.518Z,50.584110
2022-08-31T03:17:25.432Z,50.584122
2022-08-31T03:18:25.395Z,50.584103
2022-08-31T03:19:25.418Z,50.584103
2022-08-31T03:20:25.434Z,50.584133
2022-08-31T03:21:25.356Z,50.584103
2022-08-31T03:22:25.431Z,50.584129
2022-08-31T03:23:25.298Z,50.584126
2022-08-31T03:24:27.364Z,50.584114
2022-08-31T03:25:25.281Z,50.584122
2022-08-31T03:26:25.354Z,50.584106
2022-08-31T03:27:25.223Z,50.584084
2022-08-31T03:28:25.339Z,50.584106
2022-08-31T03:29:25.202Z,50.584099
2022-08-31T03:30:27.458Z,50.584156
2022-08-31T03:31:25.190Z,50.584087
2022-08-31T03:32:25.249Z,50.584068
2022-08-31T03:33:25.111Z,50.584072
2022-08-31T03:34:25.169Z,50.584057
2022-08-31T03:35:25.107Z,50.584072
2022-08-31T03:36:25.128Z,50.584042
2022-08-31T03:37:25.082Z,50.584034
2022-08-31T03:38:25.090Z,50.584084
2022-08-31T03:39:24.998Z,50.584095
2022-08-31T03:40:25.246Z,50.584137
2022-08-31T03:41:24.962Z,50.584141
2022-08-31T03:42:24.994Z,50.584145
2022-08-31T03:43:24.915Z,50.584129
2022-08-31T03:44:25.026Z,50.584106
2022-08-31T03:45:24.887Z,50.584087
2022-08-31T03:46:25.075Z,50.584042
2022-08-31T03:47:24.870Z,50.584045
2022-08-31T03:48:24.832Z,50.584057
2022-08-31T03:49:24.812Z,50.584084
2022-08-31T03:50:24.867Z,50.584122
2022-08-31T03:51:24.795Z,50.584084
2022-08-31T03:52:24.855Z,50.584061
2022-08-31T03:53:24.939Z,50.584080
2022-08-31T03:54:24.791Z,50.584091
2022-08-31T03:55:24.709Z,50.584099
2022-08-31T03:56:24.756Z,50.584118
2022-08-31T03:57:24.688Z,50.584106
2022-08-31T03:58:24.703Z,50.584072
2022-08-31T03:59:24.633Z,50.584084
2022-08-31T04:00:24.692Z,50.584103
2022-08-31T04:01:24.648Z,50.584080
2022-08-31T04:02:24.812Z,50.584072
2022-08-31T04:03:24.601Z,50.584042
2022-08-31T04:04:24.656Z,50.584106
2022-08-31T04:05:24.548Z,50.584114
2022-08-31T04:06:24.608Z,50.584118
2022-08-31T04:07:24.509Z,50.584114
2022-08-31T04:08:24.635Z,50.584110
2022-08-31T04:09:24.474Z,50.584103
2022-08-31T04:10:24.538Z,50.584114
2022-08-31T04:11:44.813Z,50.584106
2022-08-31T04:12:25.423Z,50.584122
2022-08-31T04:13:28.100Z,50.584091
2022-08-31T04:14:25.357Z,50.584003
2022-08-31T04:15:24.337Z,50.584064
2022-08-31T04:16:24.530Z,50.584084
2022-08-31T04:17:24.335Z,50.584084
2022-08-31T04:18:24.470Z,50.584095
2022-08-31T04:19:24.268Z,50.584038
2022-08-31T04:20:29.913Z,50.584114
2022-08-31T04:21:25.274Z,50.584091
2022-08-31T04:22:24.307Z,50.584015
2022-08-31T04:23:24.210Z,50.584061
2022-08-31T04:24:24.241Z,50.584038
2022-08-31T04:25:24.151Z,50.583988
2022-08-31T04:26:24.208Z,50.584106
2022-08-31T04:27:24.112Z,50.583981
2022-08-31T04:28:24.182Z,50.583908
2022-08-31T04:29:24.108Z,50.583870
2022-08-31T04:30:24.158Z,50.584015
2022-08-31T04:31:24.112Z,50.584057
2022-08-31T04:32:24.078Z,50.584068
2022-08-31T04:33:24.007Z,50.584030
2022-08-31T04:34:24.092Z,50.583885
2022-08-31T04:35:23.969Z,50.583946
2022-08-31T04:36:24.071Z,50.584061
2022-08-31T04:37:23.933Z,50.584167
2022-08-31T04:38:23.994Z,50.584084
2022-08-31T04:39:24.238Z,50.584015
2022-08-31T04:40:26.013Z,50.583984
2022-08-31T04:41:23.875Z,50.584038
2022-08-31T04:42:23.898Z,50.584068
2022-08-31T04:43:23.824Z,50.584061
2022-08-31T04:44:23.905Z,50.584023
2022-08-31T04:45:23.784Z,50.584026
2022-08-31T04:46:23.941Z,50.584034
2022-08-31T04:47:23.794Z,50.583992
2022-08-31T04:48:23.809Z,50.584003
2022-08-31T04:49:23.729Z,50.584026
2022-08-31T04:50:23.795Z,50.584076
2022-08-31T04:51:23.702Z,50.584042
2022-08-31T04:52:23.930Z,50.584011
2022-08-31T04:53:23.664Z,50.584000
2022-08-31T04:54:23.775Z,50.584015
2022-08-31T04:55:23.637Z,50.584034
2022-08-31T04:56:23.587Z,50.584019
2022-08-31T04:57:23.604Z,50.584015
2022-08-31T04:58:23.663Z,50.584034
2022-08-31T04:59:23.525Z,50.584045
2022-08-31T05:00:23.649Z,50.584057
2022-08-31T05:01:23.583Z,50.584072
2022-08-31T05:02:23.601Z,50.584023
2022-08-31T05:03:23.469Z,50.583973
2022-08-31T05:04:23.532Z,50.584026
2022-08-31T05:05:23.453Z,50.584057
2022-08-31T05:06:23.478Z,50.584099
2022-08-31T05:07:23.435Z,50.584007
2022-08-31T05:08:23.448Z,50.583958
2022-08-31T05:09:23.370Z,50.583935
2022-08-31T05:10:23.456Z,50.584011
2022-08-31T05:11:25.080Z,50.584042
2022-08-31T05:12:23.494Z,50.584019
2022-08-31T05:13:23.298Z,50.583961
2022-08-31T05:14:23.355Z,50.583984
2022-08-31T05:15:23.277Z,50.584011
2022-08-31T05:16:23.363Z,50.584026
2022-08-31T05:17:23.210Z,50.583996
2022-08-31T05:18:23.316Z,50.583961
2022-08-31T05:19:23.196Z,50.583984
2022-08-31T05:20:23.254Z,50.583992
2022-08-31T05:21:23.198Z,50.583946
2022-08-31T05:22:23.205Z,50.583988
2022-08-31T05:23:23.082Z,50.584023
2022-08-31T05:24:23.189Z,50.584064
2022-08-31T05:25:23.067Z,50.584015
2022-08-31T05:26:26.556Z,50.584038
2022-08-31T05:27:23.045Z,50.584003
2022-08-31T05:28:23.163Z,50.584019
2022-08-31T05:29:23.004Z,50.584030
2022-08-31T05:30:23.039Z,50.584030
2022-08-31T05:31:22.992Z,50.583977
2022-08-31T05:32:23.049Z,50.584076
2022-08-31T05:33:22.932Z,50.584072
2022-08-31T05:34:22.986Z,50.584084
2022-08-31T05:35:22.886Z,50.584087
2022-08-31T05:36:22.935Z,50.584106
2022-08-31T05:37:24.313Z,50.584080
2022-08-31T05:38:22.932Z,50.584061
2022-08-31T05:39:22.819Z,50.584049
2022-08-31T05:40:22.933Z,50.584087
2022-08-31T05:41:22.771Z,50.584133
2022-08-31T05:42:22.860Z,50.584099
2022-08-31T05:43:22.719Z,50.584103
2022-08-31T05:44:28.716Z,50.584095
2022-08-31T05:45:23.793Z,50.584076
2022-08-31T05:46:22.900Z,50.584076
2022-08-31T05:47:22.707Z,50.584053
2022-08-31T05:48:22.711Z,50.584084
2022-08-31T05:49:23.584Z,50.584084
2022-08-31T05:50:22.616Z,50.584099
2022-08-31T05:51:22.587Z,50.584103
2022-08-31T05:52:24.950Z,50.584126
2022-08-31T05:53:22.556Z,50.584106
2022-08-31T05:54:22.603Z,50.584091
2022-08-31T05:55:22.504Z,50.584091
2022-08-31T05:56:22.586Z,50.584099
2022-08-31T05:57:26.547Z,50.584068
2022-08-31T05:58:22.562Z,50.584068
2022-08-31T05:59:22.414Z,50.584057
2022-08-31T06:00:22.502Z,50.584076
2022-08-31T06:01:22.437Z,50.584068
2022-08-31T06:02:22.642Z,50.584145
2022-08-31T06:03:22.396Z,50.584126
2022-08-31T06:04:22.405Z,50.584099
2022-08-31T06:05:22.483Z,50.584122
2022-08-31T06:06:22.391Z,50.584129
2022-08-31T06:07:22.290Z,50.584095
2022-08-31T06:08:27.330Z,50.584095
2022-08-31T06:09:23.270Z,50.584076
2022-08-31T06:10:22.299Z,50.584122
2022-08-31T06:11:22.218Z,50.584057
2022-08-31T06:12:22.292Z,50.584076
2022-08-31T06:13:22.174Z,50.584110
2022-08-31T06:14:22.278Z,50.584106
2022-08-31T06:15:22.147Z,50.584091
2022-08-31T06:16:22.245Z,50.584099
2022-08-31T06:17:22.111Z,50.584129
2022-08-31T06:18:22.175Z,50.584095
2022-08-31T06:19:22.157Z,50.584114
2022-08-31T06:20:22.195Z,50.584076
2022-08-31T06:21:22.032Z,50.584057
2022-08-31T06:22:22.076Z,50.584045
2022-08-31T06:23:21.986Z,50.584103
2022-08-31T06:24:22.089Z,50.584152
2022-08-31T06:25:21.958Z,50.584167
2022-08-31T06:26:22.018Z,50.584122
2022-08-31T06:27:21.928Z,50.584080
2022-08-31T06:28:21.989Z,50.584114
2022-08-31T06:29:21.908Z,50.584129
2022-08-31T06:30:21.938Z,50.584099
2022-08-31T06:31:21.892Z,50.584110
2022-08-31T06:32:21.918Z,50.584129
2022-08-31T06:33:21.822Z,50.584106
2022-08-31T06:34:21.889Z,50.584137
2022-08-31T06:35:21.758Z,50.584141
2022-08-31T06:36:21.869Z,50.584122
2022-08-31T06:37:21.728Z,50.584103
2022-08-31T06:38:21.844Z,50.584076
2022-08-31T06:39:21.704Z,50.584091
2022-08-31T06:40:21.828Z,50.584103
2022-08-31T06:41:21.677Z,50.584103
2022-08-31T06:42:21.717Z,50.584118
2022-08-31T06:43:21.618Z,50.584106
2022-08-31T06:44:21.701Z,50.584114
2022-08-31T06:45:21.603Z,50.584133
2022-08-31T06:46:21.764Z,50.584118
2022-08-31T06:47:24.106Z,50.584167
2022-08-31T06:48:21.613Z,50.584126
2022-08-31T06:49:21.506Z,50.584080
2022-08-31T06:50:21.590Z,50.584099
2022-08-31T06:51:21.476Z,50.584080
2022-08-31T06:52:21.553Z,50.584110
2022-08-31T06:53:21.536Z,50.584141
2022-08-31T06:54:30.184Z,50.584110
2022-08-31T06:55:22.431Z,50.584126
2022-08-31T06:56:21.490Z,50.584148
2022-08-31T06:57:21.394Z,50.584106
2022-08-31T06:58:21.431Z,50.584015
2022-08-31T06:59:23.384Z,50.584007
2022-08-31T07:00:22.374Z,50.584072
2022-08-31T07:01:35.006Z,50.584087
2022-08-31T07:02:22.293Z,50.584084
2022-08-31T07:03:21.270Z,50.584103
2022-08-31T07:04:21.322Z,50.584129
2022-08-31T07:05:24.719Z,50.584164
2022-08-31T07:06:21.324Z,50.584114
2022-08-31T07:07:21.178Z,50.584099
2022-08-31T07:08:21.227Z,50.584068
2022-08-31T07:09:21.142Z,50.584099
2022-08-31T07:10:21.190Z,50.584122
2022-08-31T07:11:21.128Z,50.584122
2022-08-31T07:12:21.223Z,50.584145
2022-08-31T07:13:21.280Z,50.584164
2022-08-31T07:14:21.099Z,50.584160
2022-08-31T07:15:21.097Z,50.584141
2022-08-31T07:16:21.135Z,50.584106
2022-08-31T07:17:21.077Z,50.584110
2022-08-31T07:18:21.372Z,50.584080
2022-08-31T07:19:21.064Z,50.584080
2022-08-31T07:20:21.023Z,50.584099
2022-08-31T07:21:20.909Z,50.584103
2022-08-31T07:22:21.020Z,50.584145
2022-08-31T07:23:20.938Z,50.584167
2022-08-31T07:24:20.942Z,50.584034
2022-08-31T07:25:20.948Z,50.584118
2022-08-31T07:26:20.938Z,50.584064
2022-08-31T07:27:20.956Z,50.584087
2022-08-31T07:28:20.874Z,50.584126
2022-08-31T07:29:20.862Z,50.584118
2022-08-31T07:30:20.910Z,50.584187
2022-08-31T07:31:20.784Z,50.584099
2022-08-31T07:32:20.916Z,50.584106
2022-08-31T07:33:21.019Z,50.584164
2022-08-31T07:34:20.763Z,50.584106
2022-08-31T07:35:20.765Z,50.584087
2022-08-31T07:36:20.751Z,50.584087
2022-08-31T07:37:20.715Z,50.584064
2022-08-31T07:38:20.778Z,50.584080
2022-08-31T07:39:20.758Z,50.584076
2022-08-31T07:40:20.733Z,50.584068
2022-08-31T07:41:20.661Z,50.584064
2022-08-31T07:42:20.597Z,50.584084
2022-08-31T07:43:20.896Z,50.584087
2022-08-31T07:44:20.597Z,50.583992
2022-08-31T07:45:20.591Z,50.583992
2022-08-31T07:46:20.634Z,50.584023
2022-08-31T07:47:20.546Z,50.583961
2022-08-31T07:48:20.619Z,50.584064
2022-08-31T07:49:20.500Z,50.584122
2022-08-31T07:50:20.503Z,50.584091
2022-08-31T07:51:20.511Z,50.584076
2022-08-31T07:52:20.443Z,50.584087
2022-08-31T07:53:20.619Z,50.584076
2022-08-31T07:54:20.443Z,50.584110
2022-08-31T07:55:20.391Z,50.584141
2022-08-31T07:56:20.361Z,50.584106
2022-08-31T07:57:20.275Z,50.584064
2022-08-31T07:58:20.347Z,50.584007
2022-08-31T07:59:20.259Z,50.584019
2022-08-31T08:00:21.070Z,50.584152
2022-08-31T08:01:20.335Z,50.584156
2022-08-31T08:02:20.415Z,50.584148
2022-08-31T08:03:20.344Z,50.584061
2022-08-31T08:04:20.499Z,50.584045
2022-08-31T08:05:20.263Z,50.583927
2022-08-31T08:06:20.195Z,50.584000
2022-08-31T08:07:21.543Z,50.584080
2022-08-31T08:08:20.217Z,50.584148
2022-08-31T08:09:24.541Z,50.584190
2022-08-31T08:10:21.438Z,50.584194
2022-08-31T08:11:20.147Z,50.584145
2022-08-31T08:12:20.172Z,50.584141
2022-08-31T08:13:20.261Z,50.584129
2022-08-31T08:14:20.112Z,50.584068
2022-08-31T08:15:20.200Z,50.584133
2022-08-31T08:16:20.120Z,50.584171
2022-08-31T08:17:20.062Z,50.584148
2022-08-31T08:18:20.039Z,50.584122
2022-08-31T08:19:19.879Z,50.584095
2022-08-31T08:20:23.805Z,50.584129
2022-08-31T08:21:20.979Z,50.584103
2022-08-31T08:22:35.935Z,50.584106
2022-08-31T08:23:25.889Z,50.584118
2022-08-31T08:24:20.960Z,50.584148
2022-08-31T08:25:25.731Z,50.584110
2022-08-31T08:26:22.203Z,50.584118
2022-08-31T08:27:19.808Z,50.584076
2022-08-31T08:28:38.743Z,50.584080
2022-08-31T08:29:20.758Z,50.584072
2022-08-31T08:30:19.841Z,50.584061
2022-08-31T08:31:20.010Z,50.584099
2022-08-31T08:32:19.770Z,50.584038
2022-08-31T08:33:19.814Z,50.584068
2022-08-31T08:34:19.732Z,50.584057
2022-08-31T08:35:19.663Z,50.584053
2022-08-31T08:36:19.756Z,50.584038
2022-08-31T08:37:31.093Z,50.584095
2022-08-31T08:38:20.531Z,50.584068
2022-08-31T08:39:19.568Z,50.584076
2022-08-31T08:40:19.835Z,50.584103
2022-08-31T08:41:19.654Z,50.584091
2022-08-31T08:42:19.682Z,50.584087
2022-08-31T08:43:19.721Z,50.584091
2022-08-31T08:44:19.579Z,50.584053
2022-08-31T08:45:19.586Z,50.584106
2022-08-31T08:46:33.853Z,50.584114
2022-08-31T08:47:20.824Z,50.584126
2022-08-31T08:48:19.483Z,50.584072
2022-08-31T08:49:19.535Z,50.584068
2022-08-31T08:50:19.547Z,50.584080
2022-08-31T08:51:19.437Z,50.584072
2022-08-31T08:52:19.432Z,50.584091
2022-08-31T08:53:19.436Z,50.584072
2022-08-31T08:54:19.382Z,50.584057
2022-08-31T08:55:19.345Z,50.584061
2022-08-31T08:56:32.861Z,50.584068
2022-08-31T08:57:20.264Z,50.584099
2022-08-31T08:58:19.302Z,50.584084
2022-08-31T08:59:20.147Z,50.584057
2022-08-31T09:00:19.292Z,50.584091
2022-08-31T09:01:19.297Z,50.584068
2022-08-31T09:02:19.354Z,50.584057
2022-08-31T09:03:19.438Z,50.584038
2022-08-31T09:04:19.133Z,50.584068
2022-08-31T09:05:19.205Z,50.584099
2022-08-31T09:06:19.106Z,50.584038
2022-08-31T09:07:19.053Z,50.584095
2022-08-31T09:08:19.132Z,50.584091
2022-08-31T09:09:19.110Z,50.584045
2022-08-31T09:10:19.061Z,50.584061
2022-08-31T09:11:19.000Z,50.584030
2022-08-31T09:12:19.137Z,50.584019
2022-08-31T09:13:19.158Z,50.584049
2022-08-31T09:14:18.995Z,50.584068
2022-08-31T09:15:18.997Z,50.584053
2022-08-31T09:16:19.052Z,50.584045
2022-08-31T09:17:18.997Z,50.584095
2022-08-31T09:18:18.940Z,50.584095
2022-08-31T09:19:18.863Z,50.584110
2022-08-31T09:20:18.994Z,50.584087
2022-08-31T09:21:18.880Z,50.584080
2022-08-31T09:22:18.907Z,50.584080
2022-08-31T09:23:18.965Z,50.584076
2022-08-31T09:24:18.836Z,50.584068
2022-08-31T09:25:18.790Z,50.584064
2022-08-31T09:26:18.816Z,50.584072
2022-08-31T09:27:18.763Z,50.584053
2022-08-31T09:28:18.682Z,50.584084
2022-08-31T09:29:18.739Z,50.584091
2022-08-31T09:30:18.748Z,50.584076
2022-08-31T09:31:18.752Z,50.584064
2022-08-31T09:32:18.983Z,50.584023
2022-08-31T09:33:18.865Z,50.584061
2022-08-31T09:34:18.756Z,50.584049
2022-08-31T09:35:18.604Z,50.584076
2022-08-31T09:36:18.820Z,50.584019
2022-08-31T09:37:18.474Z,50.584049
2022-08-31T09:38:18.632Z,50.584080
2022-08-31T09:39:18.533Z,50.584095
2022-08-31T09:40:23.273Z,50.584110
2022-08-31T09:41:19.475Z,50.584061
2022-08-31T09:42:18.522Z,50.584068
2022-08-31T09:43:18.638Z,50.584099
2022-08-31T09:44:18.568Z,50.584095
2022-08-31T09:45:19.430Z,50.584076
2022-08-31T09:46:18.526Z,50.584072
2022-08-31T09:47:18.429Z,50.584095
2022-08-31T09:48:18.378Z,50.584076
2022-08-31T09:49:18.559Z,50.584064
2022-08-31T09:50:18.449Z,50.584095
2022-08-31T09:51:19.626Z,50.584053
2022-08-31T09:52:18.302Z,50.584099
2022-08-31T09:53:18.508Z,50.584106
2022-08-31T09:54:18.260Z,50.584080
2022-08-31T09:55:18.229Z,50.584103
2022-08-31T09:56:18.423Z,50.584114
2022-08-31T09:57:18.271Z,50.584103
2022-08-31T09:58:18.186Z,50.584087
2022-08-31T09:59:18.255Z,50.584129
2022-08-31T10:00:18.168Z,50.584068
2022-08-31T10:01:18.182Z,50.584084
2022-08-31T10:02:18.135Z,50.584106
2022-08-31T10:03:18.201Z,50.584126
2022-08-31T10:04:18.169Z,50.584137
2022-08-31T10:05:18.160Z,50.584103
2022-08-31T10:06:18.070Z,50.584068
2022-08-31T10:07:17.968Z,50.584038
2022-08-31T10:08:19.663Z,50.584042
2022-08-31T10:09:17.967Z,50.584122
2022-08-31T10:10:28.256Z,50.584141
2022-08-31T10:11:18.975Z,50.584103
2022-08-31T10:12:18.033Z,50.584122
2022-08-31T10:13:18.071Z,50.584099
2022-08-31T10:14:17.883Z,50.584106
2022-08-31T10:15:17.935Z,50.584106
2022-08-31T10:16:17.956Z,50.584091
2022-08-31T10:17:17.937Z,50.584049
2022-08-31T10:18:17.812Z,50.584072
2022-08-31T10:19:17.817Z,50.584049
2022-08-31T10:20:17.802Z,50.584057
2022-08-31T10:21:17.790Z,50.584057
2022-08-31T10:22:17.826Z,50.584076
2022-08-31T10:23:17.821Z,50.584045
2022-08-31T10:24:17.767Z,50.584064
2022-08-31T10:25:17.709Z,50.584076
2022-08-31T10:26:17.671Z,50.584057
2022-08-31T10:27:17.668Z,50.584030
2022-08-31T10:28:20.526Z,50.584019
2022-08-31T10:29:23.171Z,50.584057
2022-08-31T10:30:18.607Z,50.584091
2022-08-31T10:31:17.644Z,50.584118
2022-08-31T10:32:17.496Z,50.584072
2022-08-31T10:33:17.600Z,50.584030
2022-08-31T10:34:17.510Z,50.584072
2022-08-31T10:35:17.532Z,50.584133
2022-08-31T10:36:17.510Z,50.584057
2022-08-31T10:37:17.452Z,50.584019
2022-08-31T10:38:20.100Z,50.584194
2022-08-31T10:39:17.458Z,50.584183
2022-08-31T10:40:17.488Z,50.584198
2022-08-31T10:41:17.467Z,50.584110
2022-08-31T10:42:17.318Z,50.584137
2022-08-31T10:43:17.352Z,50.584049
2022-08-31T10:44:17.369Z,50.584038
2022-08-31T10:45:18.809Z,50.584064
2022-08-31T10:46:17.345Z,50.584019
2022-08-31T10:47:32.964Z,50.584026
2022-08-31T10:48:18.161Z,50.584068
2022-08-31T10:49:17.184Z,50.584034
2022-08-31T10:50:17.138Z,50.584042
2022-08-31T10:51:17.258Z,50.584053
2022-08-31T10:52:17.170Z,50.584110
2022-08-31T10:53:17.136Z,50.584084
2022-08-31T10:54:17.058Z,50.584084
2022-08-31T10:55:17.086Z,50.584106
2022-08-31T10:56:17.147Z,50.584103
2022-08-31T10:57:18.757Z,50.584129
2022-08-31T10:58:17.414Z,50.584118
2022-08-31T10:59:17.052Z,50.584114
2022-08-31T11:00:17.121Z,50.584053
2022-08-31T11:01:17.054Z,50.584099
2022-08-31T11:02:16.958Z,50.584148
2022-08-31T11:03:16.920Z,50.584122
2022-08-31T11:04:16.967Z,50.584118
2022-08-31T11:05:16.924Z,50.584084
2022-08-31T11:06:17.004Z,50.584110
2022-08-31T11:07:16.853Z,50.584038
2022-08-31T11:08:16.880Z,50.584103
2022-08-31T11:09:16.864Z,50.584091
2022-08-31T11:10:16.872Z,50.584118
2022-08-31T11:11:16.798Z,50.584099
2022-08-31T11:12:16.715Z,50.584038
2022-08-31T11:13:16.774Z,50.584064
2022-08-31T11:14:16.770Z,50.584118
2022-08-31T11:15:16.788Z,50.584076
2022-08-31T11:16:16.868Z,50.584049
2022-08-31T11:17:16.685Z,50.584030
2022-08-31T11:18:16.676Z,50.584076
2022-08-31T11:19:16.576Z,50.584087
2022-08-31T11:20:16.687Z,50.584106
2022-08-31T11:21:16.656Z,50.584133
2022-08-31T11:22:16.690Z,50.584084
2022-08-31T11:23:16.571Z,50.584087
2022-08-31T11:24:16.677Z,50.584103